Time;durP1;ratioP1;P1;durP2;ratioP2;P2;SDS_P1;SDS_P2;PMS_P1;PMS_P2;Temp;Humidity;BMP_temperature;BMP_pressure;BME280_temperature;BME280_humidity;BME280_pressure;Samples;Min_cycle;Max_cycle;Signal;HPM_P1;HPM_P2
2022/04/27 00:01:14;;;;;;;;;;;;;;;15.63;54.21;99471.78;5339370;26;34698;-91
2022/04/27 00:03:44;;;;;;;;;;;;;;;15.82;52.71;99476.38;5338747;26;32447;-90
2022/04/27 00:06:14;;;;;;;;;;;;;;;15.48;53.87;99481.06;5337197;26;34775;-93
2022/04/27 00:08:44;;;;;;;;;;;;;;;15.25;54.04;99474.06;5344049;26;34233;-91
2022/04/27 00:11:14;;;;;;;;;;;;;;;15.26;53.11;99478.38;5338623;26;35472;-90
2022/04/27 00:13:42;;;;;;;;;;;;;;;14.85;53.63;99474.59;5337077;26;34448;-89
2022/04/27 00:16:11;;;;;;;;;;;;;;;15.51;52.00;99483.59;5338407;26;34011;-89
2022/04/27 00:18:40;;;;;;;;;;;;;;;15.85;50.08;99482.34;5338798;26;34252;-88
2022/04/27 00:21:08;;;;;;;;;;;;;;;15.66;50.81;99483.94;5342965;26;34685;-92
2022/04/27 00:23:38;;;;;;;;;;;;;;;15.66;50.63;99492.63;5349532;26;33476;-89
2022/04/27 00:26:06;;;;;;;;;;;;;;;15.83;49.67;99489.41;5338568;26;34824;-89
2022/04/27 00:28:35;;;;;;;;;;;;;;;15.82;49.93;99486.84;5339730;26;34486;-90
2022/04/27 00:31:04;;;;;;;;;;;;;;;15.65;50.68;99492.66;5337956;26;33928;-92
2022/04/27 00:33:42;;;;;;;;;;;;;;;15.81;50.49;99491.22;5341823;26;32595;-91
2022/04/27 00:36:11;;;;;;;;;;;;;;;15.83;51.54;99491.19;5342293;26;33985;-90
2022/04/27 00:38:47;;;;;;;;;;;;;;;15.87;49.13;99492.75;5338507;26;33987;-90
2022/04/27 00:41:18;;;;;;;;;;;;;;;16.07;48.84;99492.84;5338530;26;35022;-89
2022/04/27 00:43:48;;;;;;;;;;;;;;;15.81;49.81;99490.37;5334308;26;32439;-90
2022/04/27 00:46:17;;;;;;;;;;;;;;;16.12;48.72;99496.13;5337914;26;35071;-92
2022/04/27 00:48:46;;;;;;;;;;;;;;;15.71;49.75;99495.09;5340499;26;34521;-92
2022/04/27 00:51:18;;;;;;;;;;;;;;;15.35;51.08;99496.34;5339917;26;33470;-91
2022/04/27 00:53:52;;;;;;;;;;;;;;;15.03;52.13;99504.44;5338631;26;32783;-90
2022/04/27 00:56:22;;;;;;;;;;;;;;;14.64;53.25;99495.31;5339707;26;35073;-88
2022/04/27 00:58:51;;;;;;;;;;;;;;;14.59;53.94;99507.63;5338879;26;33730;-89
2022/04/27 01:01:21;;;;;;;;;;;;;;;14.41;54.85;99503.84;5337631;26;33955;-92
2022/04/27 01:03:51;;;;;;;;;;;;;;;14.40;55.03;99504.75;5343229;26;34720;-90
2022/04/27 01:06:23;;;;;;;;;;;;;;;14.72;54.60;99508.97;5336282;26;34304;-91
2022/04/27 01:08:53;;;;;;;;;;;;;;;14.79;54.47;99504.41;5339515;26;34024;-89
2022/04/27 01:11:21;;;;;;;;;;;;;;;14.95;54.36;99509.94;5341939;26;33598;-88
2022/04/27 01:13:50;;;;;;;;;;;;;;;14.66;55.25;99503.09;5341001;26;33989;-87
2022/04/27 01:16:20;;;;;;;;;;;;;;;14.55;56.05;99503.44;5352779;26;34113;-88
2022/04/27 01:18:50;;;;;;;;;;;;;;;14.60;56.14;99506.75;5339770;26;34880;-90
2022/04/27 01:21:20;;;;;;;;;;;;;;;14.64;56.10;99499.66;5343580;26;34249;-89
2022/04/27 01:23:48;;;;;;;;;;;;;;;14.54;56.89;99511.31;5339052;26;35789;-89
2022/04/27 01:26:23;;;;;;;;;;;;;;;14.56;57.57;99504.28;5342755;26;32975;-89
2022/04/27 01:29:02;;;;;;;;;;;;;;;14.36;58.74;99507.50;5341428;26;35553;-91
2022/04/27 01:31:40;;;;;;;;;;;;;;;14.25;60.11;99513.06;5343107;26;33853;-91
2022/04/27 01:34:09;;;;;;;;;;;;;;;14.39;59.53;99515.25;5338558;26;33476;-90
2022/04/27 01:36:43;;;;;;;;;;;;;;;14.56;59.37;99514.75;5338414;26;34116;-89
2022/04/27 01:39:14;;;;;;;;;;;;;;;14.23;60.83;99525.28;5337412;26;35449;-91
2022/04/27 01:41:43;;;;;;;;;;;;;;;14.37;60.46;99532.69;5340042;26;34716;-91
2022/04/27 01:44:26;;;;;;;;;;;;;;;14.23;60.87;99541.81;5342199;26;33592;-89
2022/04/27 01:47:07;;;;;;;;;;;;;;;14.33;61.21;99551.94;5359610;26;35407;-91
2022/04/27 07:40:57;;;;;;;;;;;;;;;15.64;60.66;99714.09;5361258;26;20014;-91
2022/04/27 07:43:54;;;;;;;;;;;;;;;;;;;;;
2022/04/27 07:47:33;;;;;;;;;;;;;;;16.25;58.73;99726.00;5365700;26;35133;-91
2022/04/27 07:50:31;;;;;;;;;;;;;;;16.25;59.57;99716.38;5333303;26;34461;-90
2022/04/27 08:10:51;;;;;;;;;;;;;;;16.89;56.49;99734.13;5189235;27;34659;-91
2022/04/27 08:13:28;;;;;;;;;;;;;;;16.96;55.52;99735.59;5171377;27;35126;-90
2022/04/27 08:49:52;;;;;;;;;;;;;;;17.87;51.11;99750.31;5103149;28;34390;-93
2022/04/27 08:55:17;;;;;;;;;;;;;;;17.75;50.86;99740.28;5142397;27;33696;-93
2022/04/27 08:57:49;;;;;;;;;;;;;;;17.92;48.86;99735.22;5184570;27;34895;-89
2022/04/27 09:03:46;;;;;;;;;;;;;;;17.96;50.23;99738.56;5289172;26;33067;-91
2022/04/27 09:06:25;;;;;;;;;;;;;;;18.19;50.04;99737.56;5346923;26;32924;-91
2022/04/27 09:08:55;;;;;;;;;;;;;;;18.04;51.69;99736.47;5367146;26;34646;-89
2022/04/27 09:11:29;;;;;;;;;;;;;;;17.85;53.43;99744.25;5363694;26;34260;-90
2022/04/27 09:13:59;;;;;;;;;;;;;;;18.12;52.00;99740.47;5363454;26;34095;-92
2022/04/27 09:23:37;;;;;;;;;;;;;;;18.43;49.74;99751.38;5324223;26;36179;-91
2022/04/27 09:29:28;;;;;;;;;;;;;;;17.88;52.04;99744.16;5284102;27;33319;-94
2022/04/27 09:32:17;;;;;;;;;;;;;;;18.42;50.72;99747.91;5280775;27;34308;31
2022/04/27 09:34:51;;;;;;;;;;;;;;;18.34;51.10;99745.62;5212010;27;35476;-90
2022/04/27 09:37:38;;;;;;;;;;;;;;;18.29;50.69;99754.63;5228810;27;36684;-90
2022/04/27 09:40:11;;;;;;;;;;;;;;;18.25;51.42;99750.44;5228721;27;33757;-89
2022/04/27 09:42:46;;;;;;;;;;;;;;;18.12;51.25;99744.84;5229411;27;34498;-93
2022/04/27 09:45:22;;;;;;;;;;;;;;;18.22;51.79;99745.31;5228820;27;35084;-90
2022/04/27 09:51:49;;;;;;;;;;;;;;;18.12;51.15;99750.09;5194978;27;34517;-90
2022/04/27 09:54:41;;;;;;;;;;;;;;;18.50;48.86;99743.16;5192618;27;34906;-90
2022/04/27 09:57:18;;;;;;;;;;;;;;;18.41;50.26;99743.59;5191641;27;34677;-89
2022/04/27 09:59:48;;;;;;;;;;;;;;;18.22;51.00;99746.19;5183525;27;33342;-90
2022/04/27 10:02:19;;;;;;;;;;;;;;;18.28;50.55;99748.53;5169504;27;34693;-91
2022/04/27 10:04:50;;;;;;;;;;;;;;;18.06;51.29;99745.97;5184567;27;33712;-90
2022/04/27 10:10:16;;;;;;;;;;;;;;;17.95;51.11;99742.09;5261878;27;34260;-92
2022/04/27 10:12:48;;;;;;;;;;;;;;;17.91;51.95;99747.50;5271105;27;33730;-90
2022/04/27 10:15:23;;;;;;;;;;;;;;;17.46;53.20;99756.31;5271140;27;34376;-90
2022/04/27 10:18:01;;;;;;;;;;;;;;;17.56;52.86;99753.31;5252842;27;34314;-90
2022/04/27 10:20:41;;;;;;;;;;;;;;;17.47;53.25;99758.03;5254925;27;34624;-93
2022/04/27 10:26:13;;;;;;;;;;;;;;;16.89;55.61;99759.44;5293565;27;34421;-92
2022/04/27 10:28:45;;;;;;;;;;;;;;;17.03;55.04;99758.03;5299102;27;35091;-90
2022/04/27 10:31:14;;;;;;;;;;;;;;;16.93;56.24;99764.50;5295998;27;34496;-91
2022/04/27 10:33:49;;;;;;;;;;;;;;;16.54;58.78;99764.22;5305173;27;33623;-91
2022/04/27 10:36:24;;;;;;;;;;;;;;;16.62;58.43;99762.16;5316035;27;36512;-90
2022/04/27 10:39:12;;;;;;;;;;;;;;;16.55;58.56;99769.41;5316239;27;34151;-90
2022/04/27 10:41:44;;;;;;;;;;;;;;;16.39;59.70;99773.47;5315259;27;35247;-89
2022/04/27 10:44:13;;;;;;;;;;;;;;;16.15;60.48;99769.97;5319652;27;34150;-90
2022/04/27 10:46:45;;;;;;;;;;;;;;;16.00;61.10;99769.56;5316802;27;33160;-91
2022/04/27 10:49:28;;;;;;;;;;;;;;;15.63;62.69;99769.06;5316236;27;34532;-90
2022/04/27 10:52:06;;;;;;;;;;;;;;;15.80;62.18;99769.38;5315811;27;35219;-92
2022/04/27 10:54:57;;;;;;;;;;;;;;;15.76;62.87;99768.66;5317440;27;33568;-92
2022/04/27 10:57:41;;;;;;;;;;;;;;;15.95;61.96;99768.88;5315483;27;34394;-90
2022/04/27 11:00:13;;;;;;;;;;;;;;;15.91;61.54;99763.81;5318292;27;35143;-90
2022/04/27 11:03:15;;;;;;;;;;;;;;;15.74;62.26;99759.13;5316070;27;34586;-90
2022/04/27 11:05:48;;;;;;;;;;;;;;;15.50;63.55;99766.00;5319142;27;34151;-91
2022/04/27 11:08:18;;;;;;;;;;;;;;;15.56;63.44;99760.59;5315169;27;34583;-90
2022/04/27 11:10:47;;;;;;;;;;;;;;;15.75;61.52;99768.69;5315452;27;33852;-90
2022/04/27 11:13:16;;;;;;;;;;;;;;;15.43;62.30;99762.72;5315653;27;33888;-90
2022/04/27 11:15:47;;;;;;;;;;;;;;;15.25;62.88;99768.53;5312090;27;34494;-92
2022/04/27 11:18:17;;;;;;;;;;;;;;;15.06;63.95;99776.94;5317018;27;33677;-90
2022/04/27 11:20:46;;;;;;;;;;;;;;;15.13;63.32;99782.84;5320251;27;34266;-91
2022/04/27 11:23:23;;;;;;;;;;;;;;;15.12;63.36;99773.25;5314503;27;35737;-89
2022/04/27 11:25:55;;;;;;;;;;;;;;;14.94;63.85;99775.53;5315829;27;34358;-92
2022/04/27 11:28:24;;;;;;;;;;;;;;;14.98;64.14;99778.94;5317687;27;33365;-90
2022/04/27 11:30:54;;;;;;;;;;;;;;;14.91;64.77;99778.25;5316065;27;35636;-90
2022/04/27 11:33:23;;;;;;;;;;;;;;;14.66;64.57;99778.09;5330405;26;34048;-94
2022/04/27 11:35:53;;;;;;;;;;;;;;;14.75;64.76;99779.59;5339172;26;33408;-93
2022/04/27 11:38:37;;;;;;;;;;;;;;;14.69;65.39;99779.75;5317814;26;34455;-90
2022/04/27 11:41:14;;;;;;;;;;;;;;;14.51;66.25;99783.72;5316961;26;34210;-93
2022/04/27 11:43:46;;;;;;;;;;;;;;;14.73;65.54;99787.47;5323932;26;34352;-90
2022/04/27 11:46:17;;;;;;;;;;;;;;;14.82;65.99;99783.75;5345847;26;33648;-91
2022/04/27 11:48:52;;;;;;;;;;;;;;;15.04;65.19;99783.09;5321010;26;34940;-90
2022/04/27 11:51:21;;;;;;;;;;;;;;;14.68;65.66;99788.50;5327698;26;35220;-93
2022/04/27 11:53:52;;;;;;;;;;;;;;;14.67;65.35;99785.03;5342355;26;33804;-93
2022/04/27 11:56:23;;;;;;;;;;;;;;;14.62;64.71;99781.72;5342131;26;34249;-89
2022/04/27 11:58:59;;;;;;;;;;;;;;;14.56;65.23;99792.31;5319967;26;34285;-90
2022/04/27 12:01:33;;;;;;;;;;;;;;;14.57;64.29;99787.94;5323890;26;35360;-90
2022/04/27 12:04:06;;;;;;;;;;;;;;;14.72;64.13;99792.75;5345960;26;34149;-90
2022/04/27 12:06:35;;;;;;;;;;;;;;;14.48;65.28;99789.03;5341669;26;33502;-90
2022/04/27 12:09:17;;;;;;;;;;;;;;;14.57;65.53;99790.53;5321480;26;34254;-91
2022/04/27 12:14:32;;;;;;;;;;;;;;;14.29;66.58;99791.28;5342995;26;34388;-88
2022/04/27 12:18:03;;;;;;;;;;;;;;;14.67;65.33;99790.25;5344613;26;33258;-93
2022/04/27 12:20:37;;;;;;;;;;;;;;;14.06;67.36;99791.88;5253504;27;34344;-88
2022/04/27 12:23:07;;;;;;;;;;;;;;;14.24;66.51;99787.94;5251162;27;34524;-88
2022/04/27 12:25:55;;;;;;;;;;;;;;;14.51;65.41;99783.72;5254608;27;34205;-89
2022/04/27 12:28:24;;;;;;;;;;;;;;;14.24;65.93;99786.19;5238124;27;34251;-90
2022/04/27 12:30:57;;;;;;;;;;;;;;;14.21;65.70;99788.03;5234939;27;33663;-91
2022/04/27 12:33:29;;;;;;;;;;;;;;;14.10;65.96;99783.06;5239568;27;34100;-91
2022/04/27 12:39:20;;;;;;;;;;;;;;;14.23;65.88;99779.25;5229400;27;33104;-92
2022/04/27 12:42:43;;;;;;;;;;;;;;;14.20;66.21;99783.69;5209217;27;33020;-91
2022/04/27 12:52:04;;;;;;;;;;;;;;;;;;;;;
2022/04/27 12:55:01;;;;;;;;;;;;;;;14.02;67.14;99788.50;5214103;27;34208;-90
2022/04/27 12:58:01;;;;;;;;;;;;;;;13.92;66.96;99780.94;5240731;27;34535;-90
2022/04/27 13:01:06;;;;;;;;;;;;;;;13.95;67.16;99783.47;5255574;27;34423;-92
2022/04/27 13:03:51;;;;;;;;;;;;;;;14.02;67.57;99785.88;5229907;27;34554;-89
2022/04/27 13:06:22;;;;;;;;;;;;;;;13.81;68.43;99779.47;5248826;27;33909;-87
2022/04/27 13:08:51;;;;;;;;;;;;;;;14.06;67.96;99784.03;5249766;27;34046;-90
2022/04/27 13:14:08;;;;;;;;;;;;;;;13.74;69.06;99784.88;5251681;27;33932;-91
2022/04/27 13:16:38;;;;;;;;;;;;;;;13.27;71.01;99786.84;5248483;27;33379;-90
2022/04/27 13:19:12;;;;;;;;;;;;;;;13.22;71.78;99786.94;5250624;27;33345;-90
2022/04/27 17:47:55;;;;;;;;;;;;;;;13.57;75.26;99838.25;5288864;27;34202;-91
2022/04/27 17:50:27;;;;;;;;;;;;;;;13.51;75.57;99848.00;5298439;27;34384;-92
2022/04/27 17:53:30;;;;;;;;;;;;;;;13.56;75.29;99857.41;5300366;27;32814;-91
2022/04/27 17:56:08;;;;;;;;;;;;;;;13.56;75.71;99856.56;5310304;27;35277;-92
2022/04/27 17:58:55;;;;;;;;;;;;;;;13.49;75.81;99858.44;5304505;27;34616;-92
2022/04/27 20:53:06;;;;;;;;;;;;;;;13.07;77.27;99936.59;5314305;26;19983;-91
